Time;durP1;ratioP1;P1;durP2;ratioP2;P2;SDS_P1;SDS_P2;PMS_P1;PMS_P2;Temp;Humidity;BMP_temperature;BMP_pressure;BME280_temperature;BME280_humidity;BME280_pressure;Samples;Min_cycle;Max_cycle;Signal;HPM_P1;HPM_P2
2021/04/24 00:00:37;;;;;;;36.38;21.08;;;281.90;1510.40;;;;;;5091978;28;20342;-77
2021/04/24 00:03:04;;;;;;;36.67;22.30;;;281.80;1510.40;;;;;;5090733;28;20031;-77
2021/04/24 00:05:38;;;;;;;43.10;23.30;;;281.70;1510.40;;;;;;5090828;28;20107;-80
2021/04/24 00:08:06;;;;;;;41.53;21.27;;;281.70;1536.00;;;;;;5091866;28;20024;-79
2021/04/24 00:10:35;;;;;;;37.97;21.92;;;281.70;1536.00;;;;;;5090697;28;20071;-79
2021/04/24 00:13:02;;;;;;;40.13;22.15;;;281.60;1536.00;;;;;;5091720;28;20016;-80
2021/04/24 00:15:28;;;;;;;37.47;22.30;;;281.60;1536.00;;;;;;5092134;28;20066;-78
2021/04/24 00:17:54;;;;;;;44.08;23.45;;;256.90;1510.40;;;;;;5091746;28;20048;-78
2021/04/24 00:20:22;;;;;;;40.88;23.35;;;256.90;1510.40;;;;;;5090772;28;20024;-80
2021/04/24 00:22:48;;;;;;;41.42;23.20;;;256.90;1510.40;;;;;;5090546;28;20020;-78
2021/04/24 00:25:14;;;;;;;37.33;22.20;;;256.90;1510.40;;;;;;5091948;28;20398;-78
2021/04/24 00:27:40;;;;;;;35.58;22.15;;;256.90;1510.40;;;;;;5091889;28;20062;-80
2021/04/24 00:30:08;;;;;;;38.67;21.83;;;256.90;1536.00;;;;;;5089962;28;20132;-78
2021/04/24 00:32:34;;;;;;;39.72;22.23;;;256.80;1536.00;;;;;;5091842;28;20518;-77
2021/04/24 00:35:00;;;;;;;36.78;20.10;;;256.70;1536.00;;;;;;5091453;28;20034;-79
2021/04/24 00:37:26;;;;;;;34.75;17.55;;;256.70;1536.00;;;;;;5090488;28;20016;-78
2021/04/24 00:39:52;;;;;;;32.65;19.02;;;256.70;1510.40;;;;;;5090193;28;20388;-79
2021/04/24 00:42:18;;;;;;;32.53;18.83;;;256.60;1510.40;;;;;;5086663;28;20013;-78
2021/04/24 00:44:44;;;;;;;;;;;256.60;1536.00;;;;;;5071810;28;20017;-78
2021/04/24 00:47:10;;;;;;;30.13;16.85;;;256.60;1536.00;;;;;;5087146;28;19927;-79
2021/04/24 00:49:36;;;;;;;31.33;17.05;;;256.60;1561.60;;;;;;5091662;28;20396;-78
2021/04/24 00:52:01;;;;;;;;;;;256.60;1536.00;;;;;;5091988;28;20539;-81
2021/04/24 00:54:27;;;;;;;30.15;13.90;;;256.60;1536.00;;;;;;5091765;28;19982;-78
2021/04/24 00:56:52;;;;;;;;;;;256.60;1536.00;;;;;;5090690;28;20076;-79
2021/04/24 00:59:18;;;;;;;27.35;14.75;;;256.50;1536.00;;;;;;5093005;28;19920;-78
2021/04/24 01:01:44;;;;;;;;;;;256.50;1536.00;;;;;;5095791;28;20490;-78
2021/04/24 01:04:09;;;;;;;32.10;15.88;;;256.50;1536.00;;;;;;5095420;28;19943;-79
2021/04/24 01:06:35;;;;;;;;;;;256.40;1536.00;;;;;;5095672;28;20028;-78
2021/04/24 01:09:02;;;;;;;31.15;14.60;;;256.40;1536.00;;;;;;5094023;28;19962;-80
2021/04/24 01:11:28;;;;;;;29.33;15.50;;;256.30;1536.00;;;;;;5093834;28;20387;-78
2021/04/24 01:13:54;;;;;;;30.40;15.05;;;256.20;1536.00;;;;;;5095237;28;20020;-78
2021/04/24 01:16:19;;;;;;;;;;;256.20;1561.60;;;;;;5093975;28;20062;-78
2021/04/24 01:18:45;;;;;;;29.35;14.88;;;256.30;1536.00;;;;;;5094981;28;19904;-80
2021/04/24 01:21:11;;;;;;;;;;;256.20;1536.00;;;;;;5094318;28;20123;-80
2021/04/24 01:23:37;;;;;;;23.75;14.52;;;256.30;1536.00;;;;;;5094992;28;20469;-77
2021/04/24 01:26:03;;;;;;;37.22;17.63;;;256.20;1536.00;;;;;;5093791;28;20024;-78
2021/04/24 01:28:30;;;;;;;35.85;16.98;;;256.30;1536.00;;;;;;5093453;28;20031;-79
2021/04/24 01:30:56;;;;;;;30.48;16.42;;;256.30;1536.00;;;;;;5093489;28;20132;-78
2021/04/24 01:33:22;;;;;;;34.75;17.52;;;256.20;1536.00;;;;;;5094572;28;20091;-78
2021/04/24 01:35:48;;;;;;;38.00;18.90;;;256.30;1536.00;;;;;;5094824;28;20020;-78
2021/04/24 01:38:15;;;;;;;;;;;256.30;1510.40;;;;;;5092753;28;20045;-78
2021/04/24 01:40:41;;;;;;;36.90;19.27;;;256.30;1510.40;;;;;;5081474;28;20321;-78
2021/04/24 01:43:08;;;;;;;40.92;20.65;;;256.40;1510.40;;;;;;5084054;28;20097;-78
2021/04/24 01:45:34;;;;;;;40.28;19.45;;;256.20;1536.00;;;;;;5091046;28;20073;-78
2021/04/24 01:48:01;;;;;;;36.83;18.63;;;256.20;1536.00;;;;;;5094547;28;20024;-80
2021/04/24 01:50:32;;;;;;;33.30;19.10;;;256.20;1536.00;;;;;;5092855;28;20075;-77
2021/04/24 01:52:59;;;;;;;38.88;20.25;;;256.20;1510.40;;;;;;5094409;28;20020;-78
2021/04/24 01:55:29;;;;;;;37.80;20.38;;;256.30;1536.00;;;;;;5094269;28;20031;-78
2021/04/24 01:57:56;;;;;;;38.20;19.45;;;256.20;1536.00;;;;;;5092984;28;20061;-80
2021/04/24 02:00:28;;;;;;;52.33;20.65;;;256.20;1536.00;;;;;;5094189;28;20460;-78
2021/04/24 02:02:56;;;;;;;39.13;21.10;;;256.30;1536.00;;;;;;5093855;28;20024;-80
2021/04/24 02:05:22;;;;;;;43.63;21.45;;;256.20;1536.00;;;;;;5094256;28;20023;-79
2021/04/24 02:07:59;;;;;;;43.45;19.88;;;256.20;1536.00;;;;;;5093892;28;20028;-78
2021/04/24 02:10:27;;;;;;;41.20;20.30;;;256.10;1561.60;;;;;;5092582;28;20067;-77
2021/04/24 02:12:54;;;;;;;40.30;20.17;;;256.20;1561.60;;;;;;5093859;28;20435;-77
2021/04/24 02:15:20;;;;;;;35.25;18.33;;;256.30;1536.00;;;;;;5093446;28;20084;-78
2021/04/24 02:17:46;;;;;;;38.80;19.85;;;256.20;1536.00;;;;;;5094041;28;20032;-81
2021/04/24 02:20:12;;;;;;;44.45;20.88;;;256.20;1561.60;;;;;;5093950;28;20032;-79
2021/04/24 02:22:40;;;;;;;33.85;19.17;;;256.20;1561.60;;;;;;5093816;28;20032;-79
2021/04/24 02:25:06;;;;;;;42.10;20.90;;;256.20;1561.60;;;;;;5092573;28;20026;-78
2021/04/24 02:27:32;;;;;;;37.40;17.98;;;256.20;1561.60;;;;;;5092510;28;20028;-78
2021/04/24 02:29:58;;;;;;;37.08;19.08;;;256.20;1561.60;;;;;;5092055;28;20054;-79
2021/04/24 02:32:33;;;;;;;;;;;256.20;1561.60;;;;;;5092923;28;20032;-79
2021/04/24 02:35:00;;;;;;;37.55;19.67;;;256.20;1561.60;;;;;;5093395;28;19904;-78
2021/04/24 02:37:26;;;;;;;36.58;19.95;;;256.30;1561.60;;;;;;5082551;28;20047;-78
2021/04/24 02:39:53;;;;;;;44.53;20.90;;;256.20;1561.60;;;;;;5088318;28;20031;-78
2021/04/24 02:42:25;;;;;;;38.58;20.35;;;256.30;1561.60;;;;;;5077825;28;20028;-78
2021/04/24 02:44:53;;;;;;;39.00;20.92;;;256.30;1536.00;;;;;;5077866;28;20028;-80
2021/04/24 02:47:19;;;;;;;47.55;21.75;;;256.30;1536.00;;;;;;5088983;28;20099;-77
2021/04/24 02:49:45;;;;;;;48.97;21.95;;;256.40;1536.00;;;;;;5082375;28;20161;-78
2021/04/24 02:52:11;;;;;;;36.50;20.75;;;256.40;1536.00;;;;;;5091773;28;20123;-80
2021/04/24 02:54:38;;;;;;;;;;;256.40;1536.00;;;;;;5093733;28;20106;-78
2021/04/24 02:57:04;;;;;;;44.03;20.42;;;256.40;1536.00;;;;;;5077449;28;19904;-77
2021/04/24 02:59:30;;;;;;;44.05;19.55;;;256.30;1536.00;;;;;;5092483;28;20078;-79
2021/04/24 03:01:56;;;;;;;;;;;256.30;1536.00;;;;;;5092406;28;20070;-77
2021/04/24 03:04:22;;;;;;;37.92;19.20;;;256.40;1536.00;;;;;;5092914;28;19954;-78
2021/04/24 03:06:48;;;;;;;;;;;256.40;1536.00;;;;;;5093612;28;20103;-77
2021/04/24 03:09:14;;;;;;;45.50;22.20;;;256.40;1510.40;;;;;;5092721;28;19904;-78
2021/04/24 03:11:39;;;;;;;;;;;256.30;1536.00;;;;;;5092122;28;20028;-78
2021/04/24 03:14:09;;;;;;;38.60;18.95;;;256.30;1536.00;;;;;;5078347;28;19927;-78
2021/04/24 03:16:35;;;;;;;42.70;20.50;;;256.30;1536.00;;;;;;5078188;28;20027;-78
2021/04/24 03:19:02;;;;;;;43.70;20.63;;;256.20;1510.40;;;;;;5092772;28;20024;-78
2021/04/24 03:21:28;;;;;;;45.72;22.73;;;256.20;1510.40;;;;;;5090611;28;20027;-79
2021/04/24 03:23:55;;;;;;;50.75;24.13;;;256.20;1536.00;;;;;;5091485;28;20406;-79
2021/04/24 03:26:21;;;;;;;44.60;23.75;;;256.20;1510.40;;;;;;5092446;28;20085;-77
2021/04/24 03:28:47;;;;;;;44.78;21.25;;;256.30;1510.40;;;;;;5091501;28;20545;-78
2021/04/24 03:31:13;;;;;;;40.97;22.80;;;256.30;1510.40;;;;;;5091147;28;20036;-78
2021/04/24 03:33:39;;;;;;;;;;;256.30;1510.40;;;;;;5091883;28;20019;-78
2021/04/24 03:36:06;;;;;;;43.55;21.70;;;256.30;1510.40;;;;;;5092332;28;20363;-77
2021/04/24 03:38:33;;;;;;;38.05;20.27;;;256.20;1510.40;;;;;;5092299;28;20035;-77
2021/04/24 03:40:58;;;;;;;36.13;20.38;;;256.30;1510.40;;;;;;5091066;28;20073;-76
2021/04/24 03:43:24;;;;;;;;;;;256.20;1536.00;;;;;;5092850;28;20098;-77
2021/04/24 03:45:50;;;;;;;41.67;19.13;;;256.30;1510.40;;;;;;5092336;28;20010;-76
2021/04/24 03:48:16;;;;;;;;;;;256.20;1510.40;;;;;;5077009;28;20441;-77
2021/04/24 03:50:42;;;;;;;36.67;18.20;;;256.30;1510.40;;;;;;5092315;28;19916;-80
2021/04/24 03:53:07;;;;;;;;;;;256.20;1536.00;;;;;;5092544;28;20027;-77
2021/04/24 03:55:33;;;;;;;35.38;18.88;;;256.20;1536.00;;;;;;5090850;28;19904;-76
2021/04/24 03:58:00;;;;;;;;;;;256.10;1536.00;;;;;;5092299;28;20043;-77
2021/04/24 04:00:28;;;;;;;24.85;13.77;;;256.00;1536.00;;;;;;5090903;28;19920;-77
2021/04/24 04:03:05;;;;;;;43.05;22.83;;;231.30;1587.20;;;;;;5090697;28;20038;-77
2021/04/24 04:05:42;;;;;;;33.90;19.42;;;231.10;1612.80;;;;;;5092005;28;20073;-76
2021/04/24 04:08:09;;;;;;;32.42;19.10;;;231.00;1638.40;;;;;;5092217;28;20032;-79
2021/04/24 04:10:36;;;;;;;37.42;19.35;;;230.90;1638.40;;;;;;5091504;28;20039;-76
2021/04/24 04:13:03;;;;;;;34.75;18.80;;;230.90;1664.00;;;;;;5092108;28;20055;-80
2021/04/24 04:15:30;;;;;;;35.30;18.38;;;230.90;1664.00;;;;;;5076364;28;20028;-78
2021/04/24 04:18:08;;;;;;;38.65;18.50;;;230.90;1664.00;;;;;;5092071;28;20028;-77
2021/04/24 04:20:36;;;;;;;37.00;18.65;;;230.90;1664.00;;;;;;5076529;28;20086;-76
2021/04/24 04:23:02;;;;;;;36.63;18.75;;;230.90;1638.40;;;;;;5091841;28;20044;-78
2021/04/24 04:25:28;;;;;;;;;;;231.00;1638.40;;;;;;5092337;28;20081;-76
2021/04/24 04:27:54;;;;;;;34.67;17.92;;;231.00;1638.40;;;;;;5091462;28;19912;-81
2021/04/24 04:30:21;;;;;;;40.13;19.27;;;231.10;1638.40;;;;;;5090640;28;20044;-76
2021/04/24 04:32:47;;;;;;;42.03;19.40;;;231.20;1612.80;;;;;;5094777;28;20039;-76
2021/04/24 04:35:13;;;;;;;;;;;231.30;1612.80;;;;;;5095442;28;20032;-77
2021/04/24 04:37:40;;;;;;;41.60;20.70;;;231.00;1612.80;;;;;;5094494;28;19938;-81
2021/04/24 04:40:07;;;;;;;41.28;18.98;;;230.70;1664.00;;;;;;5096008;28;20107;-76
2021/04/24 04:42:33;;;;;;;44.22;19.95;;;230.70;1664.00;;;;;;5094373;28;20020;-81
2021/04/24 04:44:59;;;;;;;;;;;230.70;1664.00;;;;;;5094673;28;20380;-76
2021/04/24 04:47:25;;;;;;;39.20;20.10;;;231.00;1612.80;;;;;;5088248;28;19905;-76
2021/04/24 04:49:51;;;;;;;;;;;231.20;1587.20;;;;;;5089269;28;20023;-77
2021/04/24 04:52:17;;;;;;;46.30;22.95;;;231.30;1587.20;;;;;;5095682;28;19937;-76
2021/04/24 04:54:42;;;;;;;;;;;256.00;1561.60;;;;;;5095741;28;20026;-77
2021/04/24 04:57:08;;;;;;;44.70;24.58;;;256.20;1561.60;;;;;;5095461;28;20033;-76
2021/04/24 04:59:33;;;;;;;;;;;256.20;1536.00;;;;;;5095512;28;20051;-76
2021/04/24 05:01:59;;;;;;;38.97;20.88;;;256.20;1561.60;;;;;;5095496;28;19915;-76
2021/04/24 05:04:25;;;;;;;;;;;256.10;1587.20;;;;;;5095760;28;20519;-77
2021/04/24 05:06:51;;;;;;;47.90;22.48;;;256.10;1587.20;;;;;;5095470;28;19907;-75
2021/04/24 05:09:22;;;;;;;36.47;19.27;;;256.20;1561.60;;;;;;5094869;28;20019;-76
2021/04/24 05:11:49;;;;;;;40.83;19.73;;;256.40;1536.00;;;;;;5095432;28;20055;-76
2021/04/24 05:14:16;;;;;;;38.42;17.63;;;256.40;1536.00;;;;;;5095456;28;20099;-76
2021/04/24 05:16:41;;;;;;;35.55;18.70;;;256.60;1536.00;;;;;;5095128;28;20383;-78
2021/04/24 05:19:07;;;;;;;38.28;17.90;;;256.50;1510.40;;;;;;5095026;28;20100;-76
2021/04/24 05:21:34;;;;;;;;;;;256.50;1536.00;;;;;;5095273;28;20031;-76
2021/04/24 05:24:00;;;;;;;35.08;19.23;;;256.80;1536.00;;;;;;5095069;28;20288;-76
2021/04/24 05:26:26;;;;;;;42.53;18.73;;;256.50;1561.60;;;;;;5094721;28;20021;-76
2021/04/24 05:28:51;;;;;;;35.25;18.05;;;256.80;1561.60;;;;;;5094735;28;20055;-76
2021/04/24 05:31:17;;;;;;;;;;;256.80;1561.60;;;;;;5090522;28;20036;-75
2021/04/24 05:33:43;;;;;;;36.10;17.63;;;281.60;1561.60;;;;;;5085345;28;19947;-76
2021/04/24 05:36:14;;;;;;;;;;;281.70;1561.60;;;;;;5093666;28;20074;-76
2021/04/24 05:38:40;;;;;;;29.35;16.73;;;281.70;1612.80;;;;;;5093138;28;20413;-76
2021/04/24 05:41:07;;;;;;;35.75;17.40;;;281.90;1612.80;;;;;;5093170;28;20059;-77
2021/04/24 05:43:32;;;;;;;37.50;18.38;;;281.90;1587.20;;;;;;5092065;28;20028;-77
2021/04/24 05:45:58;;;;;;;38.95;20.15;;;282.00;1587.20;;;;;;5094713;28;20031;-78
2021/04/24 05:48:24;;;;;;;32.55;17.42;;;281.90;1561.60;;;;;;5094494;28;20028;-77
2021/04/24 05:50:49;;;;;;;;;;;281.70;1612.80;;;;;;5094922;28;20384;-77
2021/04/24 05:53:15;;;;;;;36.00;18.77;;;281.90;1587.20;;;;;;5093311;28;19904;-76
2021/04/24 05:55:41;;;;;;;;;;;281.90;1638.40;;;;;;5086526;28;20027;-77
2021/04/24 05:58:07;;;;;;;33.90;17.92;;;282.00;1638.40;;;;;;5083120;28;19912;-76
2021/04/24 06:00:32;;;;;;;;;;;281.80;1612.80;;;;;;5084981;28;20475;-77
2021/04/24 06:02:58;;;;;;;42.03;18.17;;;281.80;1638.40;;;;;;5087193;28;20253;-77
2021/04/24 06:05:24;;;;;;;;;;;282.00;1612.80;;;;;;5087632;28;20028;-77
2021/04/24 06:07:49;;;;;;;32.53;16.90;;;282.10;1612.80;;;;;;5087084;28;19904;-76
2021/04/24 06:10:17;;;;;;;;;;;282.30;1561.60;;;;;;5081810;28;20271;-78
2021/04/24 06:12:47;;;;;;;30.67;16.52;;;282.50;1510.40;;;;;;5086680;28;19933;-77
2021/04/24 06:15:14;;;;;;;31.60;16.50;;;282.50;1510.40;;;;;;5081829;28;20032;-74
2021/04/24 06:17:41;;;;;;;33.92;14.85;;;282.50;1510.40;;;;;;5085395;28;20345;-76
2021/04/24 06:20:09;;;;;;;21.58;12.20;;;307.30;1536.00;;;;;;5083474;28;20021;-75
2021/04/24 06:22:36;;;;;;;24.95;11.63;;;307.50;1408.00;;;;;;5083558;28;20016;-75
2021/04/24 06:25:03;;;;;;;24.15;12.15;;;307.50;1356.80;;;;;;5084999;28;20424;-76
2021/04/24 06:27:28;;;;;;;26.55;10.73;;;307.80;1356.80;;;;;;5081642;28;20392;-76
2021/04/24 06:29:55;;;;;;;28.30;12.38;;;307.80;1331.20;;;;;;5086730;28;20054;-75
2021/04/24 06:32:20;;;;;;;25.45;11.45;;;307.80;1331.20;;;;;;5080621;28;20043;-81
2021/04/24 06:34:46;;;;;;;19.95;11.45;;;307.90;1305.60;;;;;;5094354;28;20515;-77
2021/04/24 06:37:12;;;;;;;;;;;308.10;1331.20;;;;;;5093794;28;20395;-76
2021/04/24 06:39:38;;;;;;;21.17;9.48;;;308.10;1254.40;;;;;;5092221;28;19911;-77
2021/04/24 06:42:04;;;;;;;23.38;10.85;;;332.90;1305.60;;;;;;5093480;28;20020;-85
2021/04/24 06:44:30;;;;;;;22.83;11.48;;;332.90;1305.60;;;;;;5085888;28;20082;-83
2021/04/24 06:46:56;;;;;;;26.92;11.50;;;333.00;1305.60;;;;;;5093450;28;20035;-76
2021/04/24 06:49:21;;;;;;;19.85;11.55;;;333.10;1305.60;;;;;;5093273;28;20028;-77
2021/04/24 06:51:47;;;;;;;;;;;333.20;1280.00;;;;;;5078328;28;20392;-76
2021/04/24 06:54:13;;;;;;;22.13;9.43;;;333.20;1280.00;;;;;;5093033;28;20374;-76
2021/04/24 06:56:39;;;;;;;21.20;9.27;;;333.30;1280.00;;;;;;5093075;28;20020;-78
2021/04/24 06:59:05;;;;;;;;;;;333.40;1305.60;;;;;;5092989;28;20058;-76
2021/04/24 07:01:30;;;;;;;17.38;9.98;;;333.60;1228.80;;;;;;5093187;28;19917;-76
2021/04/24 07:03:56;;;;;;;18.17;10.23;;;333.70;1203.20;;;;;;5092693;28;20484;-78
2021/04/24 07:06:22;;;;;;;;;;;358.40;1177.60;;;;;;5093455;28;20459;-75
2021/04/24 07:08:48;;;;;;;23.17;10.93;;;358.50;1228.80;;;;;;5092750;28;19904;-75
2021/04/24 07:11:13;;;;;;;25.17;12.32;;;358.60;1228.80;;;;;;5092767;28;20032;-76
2021/04/24 07:13:40;;;;;;;21.58;11.18;;;358.60;1228.80;;;;;;5092515;28;20024;-75
2021/04/24 07:16:10;;;;;;;18.88;10.80;;;358.70;1203.20;;;;;;5085272;28;20036;-76
2021/04/24 07:18:35;;;;;;;20.50;11.43;;;358.70;1254.40;;;;;;5084676;28;20017;-75
2021/04/24 07:21:01;;;;;;;18.30;10.90;;;358.80;1280.00;;;;;;5092436;28;20345;-75
2021/04/24 07:23:27;;;;;;;23.60;12.15;;;358.70;1228.80;;;;;;5091385;28;20464;-79
2021/04/24 07:25:53;;;;;;;19.30;11.63;;;358.90;1228.80;;;;;;5090802;28;20024;-75
2021/04/24 07:28:19;;;;;;;17.77;10.48;;;359.00;1203.20;;;;;;5092785;28;20031;-82
2021/04/24 07:30:44;;;;;;;16.65;8.57;;;359.20;1152.00;;;;;;5092320;28;20062;-75
2021/04/24 07:33:10;;;;;;;19.55;9.88;;;359.20;1100.80;;;;;;5092589;28;20046;-75
2021/04/24 07:35:36;;;;;;;16.35;9.65;;;359.30;1126.40;;;;;;5091036;28;20023;-75
2021/04/24 07:38:03;;;;;;;19.00;8.95;;;384.10;1126.40;;;;;;5092334;28;20026;-75
2021/04/24 07:40:28;;;;;;;13.90;8.18;;;384.00;1126.40;;;;;;5092137;28;20444;-82
2021/04/24 07:42:54;;;;;;;18.88;8.60;;;384.30;1126.40;;;;;;5092154;28;20060;-76
2021/04/24 07:45:20;;;;;;;15.50;9.43;;;384.40;1152.00;;;;;;5084001;28;20085;-76
2021/04/24 07:47:48;;;;;;;14.38;9.65;;;384.40;1177.60;;;;;;5086224;28;20017;-76
2021/04/24 07:50:18;;;;;;;12.93;8.27;;;384.50;1152.00;;;;;;5092123;28;20023;-77
2021/04/24 07:52:44;;;;;;;14.00;8.45;;;384.60;1152.00;;;;;;5082997;28;20065;-77
2021/04/24 07:55:11;;;;;;;16.40;8.68;;;384.60;1126.40;;;;;;5085969;28;20031;-77
2021/04/24 07:57:36;;;;;;;17.33;9.27;;;384.50;1126.40;;;;;;5091994;28;20099;-80
2021/04/24 08:00:06;;;;;;;14.70;7.90;;;384.60;1100.80;;;;;;5092022;28;20170;-75
2021/04/24 08:02:32;;;;;;;12.57;7.75;;;384.70;1152.00;;;;;;5090202;28;20031;-77
2021/04/24 08:04:58;;;;;;;13.40;8.18;;;384.80;1100.80;;;;;;5092059;28;20383;-76
2021/04/24 08:07:24;;;;;;;17.50;9.10;;;384.80;1126.40;;;;;;5090159;28;20023;-76
2021/04/24 08:09:50;;;;;;;16.30;10.68;;;384.80;1075.20;;;;;;5091912;28;20032;-76
2021/04/24 08:12:16;;;;;;;13.75;7.30;;;409.60;1126.40;;;;;;5090155;28;20059;-78
2021/04/24 08:14:42;;;;;;;18.50;9.23;;;384.90;1075.20;;;;;;5078173;28;20052;-75
2021/04/24 08:17:08;;;;;;;13.13;7.15;;;409.60;1100.80;;;;;;5091638;28;20012;-78
2021/04/24 08:19:34;;;;;;;17.00;8.43;;;384.90;1100.80;;;;;;5091428;28;20464;-76
2021/04/24 08:22:00;;;;;;;19.63;7.90;;;384.90;1100.80;;;;;;5090446;28;20051;-75
2021/04/24 08:24:26;;;;;;;16.83;8.68;;;409.60;1100.80;;;;;;5091794;28;20024;-74
2021/04/24 08:26:52;;;;;;;15.85;8.18;;;409.70;1075.20;;;;;;5080905;28;20023;-74
2021/04/24 08:29:18;;;;;;;15.43;8.13;;;409.70;1024.00;;;;;;5087569;28;20028;-75
2021/04/24 08:31:44;;;;;;;16.25;8.35;;;409.60;1075.20;;;;;;5090173;28;20032;-74
2021/04/24 08:34:10;;;;;;;16.45;7.80;;;409.70;1075.20;;;;;;5086040;28;20822;-74
2021/04/24 08:36:37;;;;;;;15.48;7.93;;;409.70;1100.80;;;;;;5084140;28;20019;-75
2021/04/24 08:39:05;;;;;;;21.55;9.35;;;409.80;1126.40;;;;;;5084308;28;20024;-75
2021/04/24 08:41:32;;;;;;;16.95;8.35;;;409.90;1100.80;;;;;;5083899;28;20464;-75
2021/04/24 08:43:58;;;;;;;22.17;10.32;;;409.90;1075.20;;;;;;5079905;28;20038;-75
2021/04/24 08:46:25;;;;;;;19.85;9.88;;;410.10;1075.20;;;;;;5081011;28;20024;-76
2021/04/24 08:48:52;;;;;;;19.98;10.57;;;410.00;1049.60;;;;;;5091742;28;20020;-75
2021/04/24 08:51:20;;;;;;;19.52;8.52;;;410.10;1024.00;;;;;;5091599;28;20029;-75
2021/04/24 08:53:46;;;;;;;18.73;9.60;;;410.10;1075.20;;;;;;5091520;28;20467;-76
2021/04/24 08:56:12;;;;;;;19.02;10.82;;;410.20;1075.20;;;;;;5091670;28;20039;-75
2021/04/24 08:58:38;;;;;;;17.88;9.75;;;410.20;1075.20;;;;;;5091086;28;20492;-76
2021/04/24 09:01:04;;;;;;;22.52;9.88;;;410.30;1024.00;;;;;;5091794;28;20032;-78
2021/04/24 09:03:30;;;;;;;17.08;9.45;;;410.30;1024.00;;;;;;5091528;28;20483;-76
2021/04/24 09:05:56;;;;;;;16.70;10.23;;;410.30;998.40;;;;;;5091532;28;20028;-77
2021/04/24 09:08:24;;;;;;;16.75;8.65;;;410.50;998.40;;;;;;5091425;28;20020;-76
2021/04/24 09:10:52;;;;;;;20.33;9.55;;;435.20;1024.00;;;;;;5090106;28;20040;-76
2021/04/24 09:13:20;;;;;;;18.92;10.88;;;435.20;1049.60;;;;;;5091195;28;20488;-77
2021/04/24 09:15:47;;;;;;;18.85;9.45;;;435.30;998.40;;;;;;5091478;28;20082;-75
2021/04/24 09:18:13;;;;;;;18.70;9.73;;;435.30;972.80;;;;;;5089144;28;20023;-77
2021/04/24 09:21:07;;;;;;;19.25;9.77;;;435.40;972.80;;;;;;5075256;28;20090;-77
2021/04/24 09:23:35;;;;;;;16.05;8.88;;;435.50;972.80;;;;;;5084237;28;20556;-76
2021/04/24 09:26:02;;;;;;;18.48;8.50;;;435.50;947.20;;;;;;5078012;28;20471;-75
2021/04/24 09:28:37;;;;;;;13.20;8.77;;;435.70;972.80;;;;;;5074439;28;20476;-77
2021/04/24 09:31:12;;;;;;;19.35;9.48;;;435.90;921.60;;;;;;5078429;28;20040;-76
2021/04/24 09:33:40;;;;;;;16.75;9.43;;;436.00;947.20;;;;;;5079610;28;20469;-77
2021/04/24 09:36:08;;;;;;;15.68;8.07;;;435.90;972.80;;;;;;5089800;28;20032;-77
2021/04/24 09:38:41;;;;;;;16.50;9.15;;;436.10;947.20;;;;;;5091709;28;20077;-76
2021/04/24 09:41:23;;;;;;;12.63;8.77;;;460.80;947.20;;;;;;5091272;28;20107;-77
2021/04/24 09:44:04;;;;;;;13.30;9.35;;;461.10;921.60;;;;;;5082309;28;20021;-76
2021/04/24 09:46:49;;;;;;;18.23;9.32;;;461.20;921.60;;;;;;5091060;28;20077;-77
2021/04/24 09:49:30;;;;;;;16.75;8.73;;;461.30;972.80;;;;;;5084661;28;20035;-78
2021/04/24 09:52:04;;;;;;;14.75;8.13;;;461.50;870.40;;;;;;5094198;28;20492;-78
2021/04/24 09:54:47;;;;;;;16.95;8.77;;;461.40;921.60;;;;;;5085762;28;20016;-80
2021/04/24 09:57:22;;;;;;;18.63;8.77;;;460.90;947.20;;;;;;5077679;28;20024;-82
2021/04/24 09:59:50;;;;;;;17.27;8.88;;;461.10;921.60;;;;;;5074823;28;20082;-75
2021/04/24 10:02:28;;;;;;;17.83;9.18;;;461.50;896.00;;;;;;5077774;28;20016;-79
2021/04/24 10:05:23;;;;;;;17.90;9.43;;;461.70;921.60;;;;;;5079143;28;20491;-78
2021/04/24 10:07:54;;;;;;;18.38;9.50;;;486.40;921.60;;;;;;5079181;28;20081;-78
2021/04/24 10:10:29;;;;;;;17.35;10.27;;;486.60;896.00;;;;;;5084886;28;20063;-77
2021/04/24 10:12:57;;;;;;;11.50;9.00;;;486.50;896.00;;;;;;5084716;28;20028;-78
2021/04/24 10:15:42;;;;;;;16.80;8.57;;;486.50;870.40;;;;;;5079394;28;20021;-77
2021/04/24 10:18:11;;;;;;;16.90;8.85;;;486.70;844.80;;;;;;5091593;28;20024;-77
2021/04/24 10:20:38;;;;;;;15.10;9.68;;;486.70;870.40;;;;;;5089666;28;20055;-77
2021/04/24 10:23:06;;;;;;;19.88;9.38;;;486.70;870.40;;;;;;5093779;28;20016;-76
2021/04/24 10:25:33;;;;;;;16.02;9.73;;;486.70;921.60;;;;;;5091162;28;20085;-77
2021/04/24 10:27:59;;;;;;;18.63;9.63;;;486.80;870.40;;;;;;5091614;28;20035;-77
2021/04/24 10:30:26;;;;;;;19.08;11.02;;;486.80;896.00;;;;;;5091558;28;20044;-76
2021/04/24 10:32:55;;;;;;;16.30;9.70;;;486.80;921.60;;;;;;5093809;28;20368;-76
2021/04/24 10:35:22;;;;;;;12.95;8.00;;;487.10;819.20;;;;;;5093843;28;20384;-76
2021/04/24 10:37:54;;;;;;;15.38;8.68;;;512.00;793.60;;;;;;5093761;28;20024;-77
2021/04/24 10:40:21;;;;;;;16.90;7.82;;;487.00;870.40;;;;;;5092585;28;20059;-79
2021/04/24 10:42:53;;;;;;;17.80;8.15;;;487.30;768.00;;;;;;5092387;28;20039;-77
2021/04/24 10:45:28;;;;;;;18.50;8.85;;;512.10;716.80;;;;;;5092747;28;20020;-77
2021/04/24 10:47:55;;;;;;;14.75;8.40;;;512.30;819.20;;;;;;5080530;28;20051;-77
2021/04/24 10:50:45;;;;;;;12.90;8.07;;;512.30;768.00;;;;;;5087706;28;20031;-77
2021/04/24 10:53:39;;;;;;;13.85;7.95;;;487.10;793.60;;;;;;5080738;28;20490;-77
2021/04/24 10:56:05;;;;;;;15.55;6.88;;;487.30;742.40;;;;;;5047394;28;20037;-77
2021/04/24 10:58:32;;;;;;;10.18;6.68;;;512.20;819.20;;;;;;5030110;28;20037;-78
2021/04/24 11:01:01;;;;;;;12.35;7.10;;;512.60;742.40;;;;;;5031597;28;20037;-77
2021/04/24 11:03:45;;;;;;;20.42;7.65;;;512.60;716.80;;;;;;5015971;28;20033;-77
2021/04/24 11:06:16;;;;;;;11.77;6.72;;;512.40;691.20;;;;;;5040831;28;20295;-77
2021/04/24 11:08:47;;;;;;;11.25;6.68;;;512.00;768.00;;;;;;5025082;28;20095;-77
2021/04/24 11:11:18;;;;;;;13.68;6.22;;;512.10;768.00;;;;;;5030868;28;20132;-78
2021/04/24 11:13:54;;;;;;;11.75;7.20;;;512.20;691.20;;;;;;5031513;28;20033;-77
2021/04/24 11:16:21;;;;;;;12.07;6.78;;;512.00;742.40;;;;;;5041283;28;20052;-79
2021/04/24 11:18:48;;;;;;;13.35;7.30;;;512.40;716.80;;;;;;5016851;28;20102;-77
2021/04/24 11:21:17;;;;;;;10.00;6.53;;;512.70;742.40;;;;;;5020104;28;20029;-78
2021/04/24 11:23:51;;;;;;;16.13;7.20;;;512.70;691.20;;;;;;5033348;28;20083;-77
2021/04/24 11:26:35;;;;;;;12.45;6.95;;;537.60;716.80;;;;;;5032159;28;20063;-77
2021/04/24 11:29:07;;;;;;;9.48;6.30;;;537.80;742.40;;;;;;5030663;28;20032;-77
2021/04/24 11:31:43;;;;;;;10.63;5.55;;;512.90;716.80;;;;;;5033595;28;20068;-77
2021/04/24 11:34:28;;;;;;;10.77;5.60;;;537.60;768.00;;;;;;5066579;28;20025;-77
2021/04/24 11:37:20;;;;;;;8.43;5.20;;;537.80;716.80;;;;;;5060309;28;20103;-77
2021/04/24 11:40:16;;;;;;;9.23;5.40;;;537.90;716.80;;;;;;5058882;28;20477;-77
2021/04/24 11:43:08;;;;;;;11.05;5.45;;;537.90;742.40;;;;;;5066703;28;20055;-78
2021/04/24 11:45:45;;;;;;;10.05;4.47;;;538.10;691.20;;;;;;5050613;28;20048;-78
2021/04/24 11:48:11;;;;;;;9.80;4.25;;;537.90;691.20;;;;;;5053656;28;20017;-78
2021/04/24 11:50:43;;;;;;;8.95;4.55;;;537.90;691.20;;;;;;5061202;28;20060;-78
2021/04/24 11:53:09;;;;;;;12.95;6.13;;;537.80;640.00;;;;;;5060469;28;20079;-78
2021/04/24 11:55:38;;;;;;;9.77;5.43;;;538.00;691.20;;;;;;5059230;28;20393;-77
2021/04/24 11:58:10;;;;;;;9.55;4.68;;;537.80;691.20;;;;;;5066005;28;20069;-77
2021/04/24 12:00:37;;;;;;;7.70;4.20;;;537.80;640.00;;;;;;5079533;28;20044;-78
2021/04/24 12:03:04;;;;;;;9.00;4.60;;;538.00;665.60;;;;;;5083630;28;20048;-78
2021/04/24 12:05:30;;;;;;;8.75;4.90;;;538.00;665.60;;;;;;5075979;28;20021;-79
2021/04/24 12:07:56;;;;;;;8.70;4.63;;;538.00;588.80;;;;;;5080987;28;20463;-78
2021/04/24 12:10:29;;;;;;;12.85;4.88;;;538.00;588.80;;;;;;5082139;28;20074;-78
2021/04/24 12:13:10;;;;;;;10.73;4.72;;;538.10;614.40;;;;;;5079874;28;20032;-77
2021/04/24 12:15:38;;;;;;;8.07;5.40;;;538.10;691.20;;;;;;5080831;28;20070;-78
2021/04/24 12:18:06;;;;;;;8.95;4.90;;;538.20;640.00;;;;;;5082081;28;20039;-77
2021/04/24 12:20:42;;;;;;;7.32;4.35;;;538.10;665.60;;;;;;5079118;28;20095;-78